createdAt,value
2023-02-11T00:01:33.615Z,19.85
2023-02-11T00:06:35.951Z,20.67
2023-02-11T00:11:37.280Z,22.35
2023-02-11T00:16:38.652Z,22.90
2023-02-11T00:21:40.214Z,21.38
2023-02-11T00:26:41.573Z,22.08
2023-02-11T00:31:43.005Z,19.90
2023-02-11T00:36:44.480Z,22.55
2023-02-11T00:41:45.798Z,21.85
2023-02-11T00:46:47.237Z,23.73
2023-02-11T00:51:48.667Z,23.45
2023-02-11T00:56:50.229Z,23.40
2023-02-11T01:01:51.611Z,23.95
2023-02-11T01:06:53.056Z,23.85
2023-02-11T01:11:54.474Z,22.83
2023-02-11T01:16:56.427Z,21.80
2023-02-11T01:21:57.917Z,24.67
2023-02-11T01:26:59.266Z,22.60
2023-02-11T01:32:01.289Z,24.25
2023-02-11T01:37:02.731Z,24.10
2023-02-11T01:42:04.209Z,23.73
2023-02-11T01:47:06.508Z,24.25
2023-02-11T01:52:25.946Z,24.67
2023-02-11T01:57:30.821Z,25.63
2023-02-11T02:03:10.178Z,24.52
2023-02-11T02:08:34.234Z,25.65
2023-02-11T02:13:36.044Z,24.90
2023-02-11T02:18:40.212Z,24.92
2023-02-11T02:24:12.582Z,24.45
2023-02-11T02:29:21.535Z,25.27
2023-02-11T02:34:30.655Z,26.83
2023-02-11T02:39:35.546Z,26.48
2023-02-11T02:44:36.961Z,23.50
2023-02-11T02:49:38.294Z,25.55
2023-02-11T02:54:57.308Z,26.48
2023-02-11T03:00:36.247Z,26.35
2023-02-11T03:05:55.724Z,25.05
2023-02-11T03:10:59.302Z,25.98
2023-02-11T03:16:20.062Z,25.48
2023-02-11T03:21:23.616Z,23.88
2023-02-11T03:26:44.123Z,24.65
2023-02-11T03:32:04.196Z,26.23
2023-02-11T03:37:27.001Z,27.77
2023-02-11T03:42:34.849Z,26.08
2023-02-11T03:52:40.483Z,25.45
2023-02-11T03:57:41.901Z,24.83
2023-02-11T04:02:44.033Z,27.15
2023-02-11T04:07:45.511Z,23.35
2023-02-11T04:12:46.929Z,27.83
2023-02-11T04:17:48.514Z,26.30
2023-02-11T04:22:49.962Z,25.58
2023-02-11T04:27:51.311Z,24.17
2023-02-11T04:32:54.147Z,25.35
2023-02-11T04:37:55.473Z,26.63
2023-02-11T04:42:56.804Z,28.13
2023-02-11T04:47:58.331Z,24.25
2023-02-11T04:52:59.648Z,25.08
2023-02-11T04:58:00.999Z,25.38
2023-02-11T05:03:02.336Z,25.08
2023-02-11T05:08:03.818Z,26.52
2023-02-11T05:13:05.225Z,24.30
2023-02-11T05:18:06.576Z,24.45
2023-02-11T05:23:08.233Z,25.42
2023-02-11T05:28:09.728Z,24.35
2023-02-11T05:33:11.148Z,23.08
2023-02-11T05:38:12.827Z,25.25
2023-02-11T05:43:14.161Z,24.50
2023-02-11T05:48:16.214Z,28.17
2023-02-11T05:53:17.746Z,25.38
2023-02-11T05:58:19.280Z,23.77
2023-02-11T06:03:20.755Z,24.88
2023-02-11T06:08:22.275Z,23.15
2023-02-11T06:13:23.649Z,24.75
2023-02-11T06:18:25.638Z,23.15
2023-02-11T06:23:29.996Z,23.40
2023-02-11T06:28:32.319Z,22.90
2023-02-11T06:33:34.929Z,23.10
2023-02-11T06:38:36.260Z,23.80
2023-02-11T06:43:37.750Z,22.27
2023-02-11T09:40:35.932Z,20.88
2023-02-11T09:45:37.464Z,20.48
2023-02-11T09:50:50.916Z,20.92
2023-02-11T09:55:59.390Z,20.50
2023-02-11T10:01:00.707Z,21.92
2023-02-11T10:06:20.663Z,20.77
2023-02-11T10:12:23.841Z,20.67
2023-02-11T10:17:44.735Z,21.42
2023-02-11T10:22:53.486Z,19.73
2023-02-11T10:27:59.569Z,18.23
2023-02-11T10:33:05.777Z,17.90
2023-02-11T10:38:08.893Z,19.05
2023-02-11T10:43:14.149Z,19.98
2023-02-11T10:48:39.800Z,20.70
2023-02-11T10:53:41.680Z,21.75
2023-02-11T10:58:55.927Z,20.17
2023-02-11T11:03:59.821Z,20.95
2023-02-11T11:09:01.937Z,20.20
2023-02-11T11:14:04.395Z,19.08
2023-02-11T11:19:08.589Z,19.58
2023-02-11T11:24:31.300Z,21.25
2023-02-11T11:29:36.834Z,18.77
2023-02-11T11:34:41.801Z,18.25
2023-02-11T11:39:53.149Z,18.27
2023-02-11T11:44:58.951Z,19.17
2023-02-11T11:50:45.576Z,19.02
2023-02-11T11:55:59.887Z,20.00
2023-02-11T12:01:12.688Z,19.30
2023-02-11T12:06:39.071Z,18.77
2023-02-11T12:12:05.050Z,19.33
2023-02-11T12:17:26.589Z,18.88
2023-02-11T12:22:46.031Z,17.48
2023-02-11T12:27:53.262Z,16.50
2023-02-11T12:33:17.604Z,18.27
2023-02-11T12:38:43.362Z,15.60
2023-02-11T12:43:45.318Z,18.83
2023-02-11T12:49:11.984Z,17.38
2023-02-11T12:54:20.672Z,17.20
2023-02-11T12:59:35.101Z,18.23
2023-02-11T13:04:44.652Z,17.77
2023-02-11T13:09:55.086Z,17.60
2023-02-11T13:15:01.979Z,17.40
2023-02-11T13:20:18.354Z,17.23
2023-02-11T13:25:32.276Z,17.02
2023-02-11T13:30:35.698Z,16.77
2023-02-11T13:35:40.100Z,18.60
2023-02-11T13:40:41.501Z,14.95
2023-02-11T13:45:48.143Z,14.82
2023-02-11T13:50:52.252Z,16.10
2023-02-11T13:56:07.690Z,15.00
2023-02-11T14:01:09.100Z,14.52
2023-02-11T14:06:29.417Z,14.32
2023-02-11T14:11:33.551Z,16.00
2023-02-11T14:16:38.276Z,13.75
2023-02-11T14:21:43.122Z,12.55
2023-02-11T14:26:52.259Z,13.25
2023-02-11T14:32:37.969Z,14.48
2023-02-11T14:37:57.669Z,13.40
2023-02-11T14:43:11.998Z,13.10
2023-02-11T14:48:16.917Z,14.13
2023-02-11T14:53:21.298Z,13.82
2023-02-11T14:58:25.379Z,12.70
2023-02-11T15:03:56.429Z,12.52
2023-02-11T15:09:02.600Z,12.45
2023-02-11T15:14:11.811Z,11.63
2023-02-11T15:19:28.169Z,12.50
2023-02-11T15:24:31.761Z,12.07
2023-02-11T15:29:38.733Z,11.75
2023-02-11T15:34:40.566Z,11.57
2023-02-11T15:39:42.631Z,11.57
2023-02-11T15:44:44.389Z,11.25
2023-02-11T15:49:47.701Z,11.23
2023-02-11T15:54:49.482Z,9.23
2023-02-11T15:59:54.097Z,11.13
2023-02-11T16:05:25.233Z,10.27
2023-02-11T16:10:35.339Z,10.23
2023-02-11T16:16:05.028Z,9.90
2023-02-11T16:21:15.773Z,10.70
2023-02-11T16:26:26.788Z,10.30
2023-02-11T16:31:40.960Z,10.57
2023-02-11T16:41:59.276Z,10.05
2023-02-11T16:47:03.180Z,8.88
2023-02-11T16:52:15.565Z,10.60
2023-02-11T16:57:28.084Z,9.45
2023-02-11T17:02:34.172Z,9.45
2023-02-11T17:07:35.553Z,9.20
2023-02-11T17:12:36.872Z,9.45
2023-02-11T17:17:38.215Z,11.00
2023-02-11T17:22:40.222Z,9.75
2023-02-11T17:27:41.810Z,10.30
2023-02-11T17:32:43.123Z,10.15
2023-02-11T17:37:44.513Z,9.32
2023-02-11T17:42:45.895Z,9.80
2023-02-11T17:47:49.053Z,9.82
2023-02-11T17:52:50.388Z,10.10
2023-02-11T17:57:51.804Z,9.48
2023-02-11T18:02:54.118Z,11.25
2023-02-11T18:07:56.733Z,11.18
2023-02-11T18:12:58.100Z,10.65
2023-02-11T18:17:59.428Z,11.18
2023-02-11T18:23:00.976Z,12.77
2023-02-11T18:28:02.618Z,15.18
2023-02-11T18:33:08.673Z,14.38
2023-02-11T18:38:10.220Z,14.65
2023-02-11T18:43:11.572Z,14.27
2023-02-11T18:48:13.250Z,14.88
2023-02-11T18:53:15.889Z,14.98
2023-02-11T18:58:17.787Z,14.45
2023-02-11T19:03:19.175Z,13.73
2023-02-11T19:08:20.540Z,15.55
2023-02-11T19:13:21.937Z,14.57
2023-02-11T19:18:23.322Z,14.82
2023-02-11T19:23:24.706Z,14.93
2023-02-11T19:28:26.238Z,15.95
2023-02-11T19:33:27.702Z,15.43
2023-02-11T19:38:29.123Z,15.15
2023-02-11T19:43:30.736Z,16.88
2023-02-11T19:48:32.354Z,17.05
2023-02-11T19:53:33.779Z,18.55
2023-02-11T19:58:36.389Z,16.48
2023-02-11T20:03:40.749Z,18.02
2023-02-11T20:08:44.003Z,17.58
2023-02-11T20:13:45.640Z,17.30
2023-02-11T20:18:51.130Z,18.70
2023-02-11T20:23:53.299Z,18.00
2023-02-11T20:28:55.957Z,18.48
2023-02-11T20:33:57.979Z,17.77
2023-02-11T20:39:00.234Z,16.67
2023-02-11T20:49:22.279Z,17.33
2023-02-11T20:54:24.776Z,17.83
2023-02-11T20:59:26.667Z,18.17
2023-02-11T21:04:30.770Z,18.58
2023-02-11T21:09:33.168Z,18.55
2023-02-11T21:14:34.624Z,19.08
2023-02-11T21:19:35.988Z,17.45
2023-02-11T21:24:37.361Z,19.10
2023-02-11T21:29:52.760Z,19.50
2023-02-11T21:34:55.177Z,19.45
2023-02-11T21:39:56.538Z,20.17
2023-02-11T21:44:57.884Z,19.95
2023-02-11T21:49:59.256Z,17.83
2023-02-11T21:55:00.614Z,16.60
2023-02-11T22:00:02.516Z,17.90
2023-02-11T22:05:04.217Z,18.42
2023-02-11T22:10:07.897Z,20.65
2023-02-11T22:15:09.880Z,18.38
2023-02-11T22:20:11.893Z,18.70
2023-02-11T22:25:13.269Z,18.45
2023-02-11T22:30:14.719Z,18.38
2023-02-11T22:35:16.107Z,18.75
2023-02-11T22:40:17.453Z,18.13
2023-02-11T22:45:18.845Z,17.95
2023-02-11T22:50:20.236Z,16.88
2023-02-11T22:55:21.570Z,17.67
2023-02-11T23:00:26.029Z,17.00
2023-02-11T23:05:27.357Z,17.80
2023-02-11T23:10:28.696Z,16.25
2023-02-11T23:15:30.800Z,18.10
2023-02-11T23:20:35.384Z,18.05
2023-02-11T23:25:43.248Z,19.92
2023-02-11T23:30:44.612Z,19.83
2023-02-11T23:35:45.987Z,20.52
2023-02-11T23:40:47.369Z,20.45
2023-02-11T23:45:48.769Z,20.30
2023-02-11T23:50:50.136Z,19.30
2023-02-11T23:55:51.471Z,18.45
